createdAt,value
2023-01-19T00:00:28.593Z,4.75
2023-01-19T00:02:55.028Z,4.85
2023-01-19T00:05:21.682Z,4.55
2023-01-19T00:07:48.047Z,5.45
2023-01-19T00:10:14.622Z,4.47
2023-01-19T00:12:41.050Z,5.25
2023-01-19T00:15:08.134Z,6.63
2023-01-19T00:17:34.469Z,5.05
2023-01-19T00:20:00.875Z,5.22
2023-01-19T00:22:27.211Z,5.65
2023-01-19T00:24:53.590Z,4.90
2023-01-19T00:27:20.007Z,4.38
2023-01-19T00:29:46.461Z,4.25
2023-01-19T00:32:12.898Z,4.38
2023-01-19T00:34:49.584Z,5.32
2023-01-19T00:37:16.988Z,4.82
2023-01-19T00:39:43.787Z,6.43
2023-01-19T00:42:32.188Z,5.43
2023-01-19T00:44:58.673Z,4.47
2023-01-19T00:47:25.474Z,5.43
2023-01-19T00:49:51.967Z,5.18
2023-01-19T00:52:18.376Z,4.80
2023-01-19T00:54:44.726Z,5.68
2023-01-19T00:57:11.131Z,5.10
2023-01-19T00:59:37.596Z,4.45
2023-01-19T01:02:04.149Z,5.07
2023-01-19T01:04:31.064Z,5.00
2023-01-19T01:06:57.460Z,13.02
2023-01-19T01:09:24.229Z,4.15
2023-01-19T01:11:50.687Z,4.70
2023-01-19T01:14:18.137Z,5.18
2023-01-19T01:16:44.616Z,4.70
2023-01-19T01:19:11.038Z,4.60
2023-01-19T01:21:37.517Z,4.32
2023-01-19T01:24:04.380Z,4.05
2023-01-19T01:26:30.875Z,4.78
2023-01-19T01:28:57.266Z,4.38
2023-01-19T01:31:23.705Z,3.92
2023-01-19T01:33:50.196Z,5.53
2023-01-19T01:36:16.624Z,4.88
2023-01-19T01:38:43.044Z,5.05
2023-01-19T01:41:09.552Z,5.70
2023-01-19T01:43:58.589Z,11.35
2023-01-19T01:46:27.041Z,5.70
2023-01-19T01:49:07.633Z,5.00
2023-01-19T01:51:44.593Z,4.20
2023-01-19T01:54:28.712Z,5.57
2023-01-19T01:57:00.409Z,4.97
2023-01-19T01:59:34.626Z,4.93
2023-01-19T02:02:25.956Z,4.97
2023-01-19T02:04:59.126Z,6.22
2023-01-19T02:08:17.146Z,4.63
2023-01-19T02:11:02.933Z,5.20
2023-01-19T02:13:30.902Z,4.60
2023-01-19T02:16:00.945Z,5.60
2023-01-19T02:18:29.606Z,4.88
2023-01-19T02:21:38.039Z,4.47
2023-01-19T02:24:04.915Z,5.30
2023-01-19T02:26:44.295Z,5.13
2023-01-19T02:29:13.310Z,5.93
2023-01-19T02:31:40.902Z,5.50
2023-01-19T02:34:10.957Z,6.25
2023-01-19T02:37:12.630Z,5.82
2023-01-19T02:39:43.152Z,5.38
2023-01-19T02:42:18.366Z,6.88
2023-01-19T02:44:48.921Z,6.30
2023-01-19T02:47:15.929Z,5.50
2023-01-19T02:49:42.416Z,10.00
2023-01-19T02:52:17.635Z,5.88
2023-01-19T02:55:15.226Z,5.93
2023-01-19T02:58:11.421Z,5.57
2023-01-19T03:00:52.193Z,5.85
2023-01-19T03:03:32.735Z,5.22
2023-01-19T03:06:12.396Z,5.28
2023-01-19T03:09:08.689Z,5.72
2023-01-19T03:11:42.404Z,6.68
2023-01-19T03:14:18.380Z,6.28
2023-01-19T03:16:55.138Z,6.03
2023-01-19T03:19:34.758Z,6.65
2023-01-19T03:22:07.312Z,6.78
2023-01-19T03:24:39.958Z,6.30
2023-01-19T03:27:12.839Z,6.38
2023-01-19T03:29:44.967Z,6.05
2023-01-19T03:32:16.377Z,5.50
2023-01-19T03:37:13.410Z,5.28
2023-01-19T03:39:40.001Z,4.80
2023-01-19T03:42:11.639Z,5.43
2023-01-19T03:44:40.287Z,6.25
2023-01-19T03:47:10.372Z,6.00
2023-01-19T03:49:38.307Z,5.80
2023-01-19T03:52:05.204Z,6.13
2023-01-19T03:54:32.024Z,5.00
2023-01-19T03:56:58.823Z,5.88
2023-01-19T03:59:25.207Z,7.22
2023-01-19T04:01:52.297Z,7.15
2023-01-19T04:04:18.704Z,6.03
2023-01-19T04:06:45.115Z,4.95
2023-01-19T04:09:11.629Z,5.43
2023-01-19T04:11:38.064Z,6.03
2023-01-19T04:14:04.502Z,7.85
2023-01-19T04:16:30.914Z,6.18
2023-01-19T04:18:57.311Z,6.45
2023-01-19T04:21:23.750Z,5.70
2023-01-19T04:23:50.130Z,6.28
2023-01-19T04:26:16.524Z,5.75
2023-01-19T04:28:42.905Z,5.85
2023-01-19T04:31:09.408Z,5.78
2023-01-19T04:33:35.911Z,6.03
2023-01-19T04:36:02.452Z,7.18
2023-01-19T04:38:28.808Z,6.70
2023-01-19T04:40:55.327Z,6.38
2023-01-19T04:43:22.924Z,6.50
2023-01-19T04:45:50.153Z,6.57
2023-01-19T04:48:18.339Z,5.28
2023-01-19T04:50:44.743Z,6.30
2023-01-19T04:53:12.331Z,5.32
2023-01-19T04:55:38.820Z,6.15
2023-01-19T04:58:05.412Z,5.20
2023-01-19T05:00:31.761Z,6.38
2023-01-19T05:02:58.406Z,5.95
2023-01-19T05:05:25.052Z,5.95
2023-01-19T05:07:51.434Z,5.50
2023-01-19T05:10:17.999Z,5.57
2023-01-19T05:12:44.465Z,6.75
2023-01-19T05:15:11.174Z,6.78
2023-01-19T05:17:37.860Z,4.97
2023-01-19T05:20:04.801Z,5.40
2023-01-19T05:22:31.529Z,6.57
2023-01-19T05:24:58.287Z,6.50
2023-01-19T05:27:24.725Z,6.15
2023-01-19T05:29:51.143Z,5.95
2023-01-19T05:32:17.502Z,6.05
2023-01-19T05:34:43.908Z,5.65
2023-01-19T05:37:10.903Z,6.10
2023-01-19T05:39:37.330Z,6.57
2023-01-19T05:42:03.933Z,5.07
2023-01-19T05:44:30.313Z,6.40
2023-01-19T05:46:57.067Z,5.90
2023-01-19T05:49:23.510Z,4.63
2023-01-19T05:51:50.002Z,7.45
2023-01-19T05:54:16.487Z,6.35
2023-01-19T05:56:42.929Z,6.97
2023-01-19T05:59:10.390Z,5.30
2023-01-19T06:01:39.849Z,7.05
2023-01-19T06:04:06.714Z,6.38
2023-01-19T06:06:33.296Z,5.57
2023-01-19T06:08:59.693Z,5.55
2023-01-19T06:11:26.197Z,7.15
2023-01-19T06:13:52.820Z,5.28
2023-01-19T06:16:19.433Z,6.05
2023-01-19T06:18:46.112Z,6.90
2023-01-19T06:21:14.215Z,6.82
2023-01-19T06:23:41.009Z,6.68
2023-01-19T06:26:07.974Z,6.20
2023-01-19T06:28:34.789Z,7.32
2023-01-19T06:31:01.821Z,6.57
2023-01-19T06:33:28.639Z,6.90
2023-01-19T06:35:55.540Z,6.75
2023-01-19T06:38:22.292Z,6.28
2023-01-19T06:40:54.588Z,6.57
2023-01-19T06:43:21.878Z,7.03
2023-01-19T06:45:48.858Z,7.78
2023-01-19T06:48:15.555Z,7.32
2023-01-19T06:50:45.171Z,7.65
2023-01-19T06:53:12.232Z,7.57
2023-01-19T06:55:39.178Z,6.30
2023-01-19T06:58:06.432Z,7.00
2023-01-19T07:00:32.911Z,6.78
2023-01-19T07:02:59.628Z,7.63
2023-01-19T07:05:26.262Z,7.28
2023-01-19T07:07:54.420Z,7.97
2023-01-19T07:10:21.322Z,7.50
2023-01-19T07:12:47.937Z,9.23
2023-01-19T07:15:16.829Z,7.93
2023-01-19T07:17:43.591Z,7.97
2023-01-19T07:20:12.941Z,7.55
2023-01-19T07:22:39.583Z,7.93
2023-01-19T07:25:06.257Z,8.27
2023-01-19T07:27:32.670Z,6.47
2023-01-19T07:30:01.019Z,8.35
2023-01-19T07:32:29.020Z,6.35
2023-01-19T07:34:55.713Z,8.48
2023-01-19T07:37:22.416Z,5.72
2023-01-19T07:39:48.860Z,6.35
2023-01-19T07:42:15.671Z,6.03
2023-01-19T07:44:42.292Z,6.90
2023-01-19T07:47:11.159Z,5.78
2023-01-19T07:49:37.514Z,6.43
2023-01-19T07:52:04.020Z,8.02
2023-01-19T07:54:30.378Z,9.88
2023-01-19T07:56:56.765Z,7.28
2023-01-19T07:59:23.405Z,5.78
2023-01-19T08:01:49.836Z,5.88
2023-01-19T08:04:16.267Z,7.03
2023-01-19T08:06:45.612Z,6.22
2023-01-19T08:09:11.986Z,7.03
2023-01-19T08:11:38.529Z,6.88
2023-01-19T08:14:07.714Z,6.15
2023-01-19T08:16:34.540Z,6.72
2023-01-19T08:19:00.981Z,7.15
2023-01-19T08:21:27.780Z,6.18
2023-01-19T08:23:55.018Z,6.50
2023-01-19T08:26:27.790Z,6.03
2023-01-19T08:28:54.946Z,6.47
2023-01-19T08:31:24.509Z,6.57
2023-01-19T08:33:51.629Z,6.47
2023-01-19T08:36:18.552Z,6.13
2023-01-19T08:38:45.940Z,5.85
2023-01-19T08:41:12.785Z,5.40
2023-01-19T08:43:39.245Z,5.25
2023-01-19T08:46:06.707Z,5.50
2023-01-19T08:48:33.460Z,6.32
2023-01-19T08:51:00.404Z,6.40
2023-01-19T08:53:27.018Z,5.55
2023-01-19T08:55:57.454Z,5.93
2023-01-19T08:58:23.872Z,4.72
2023-01-19T09:00:52.447Z,5.05
2023-01-19T09:03:20.960Z,5.45
2023-01-19T09:05:47.374Z,5.07
2023-01-19T09:08:14.514Z,4.90
2023-01-19T09:10:47.168Z,4.97
2023-01-19T09:13:14.054Z,4.68
2023-01-19T09:15:41.292Z,5.20
2023-01-19T09:18:13.377Z,5.20
2023-01-19T09:20:44.448Z,4.50
2023-01-19T09:23:12.204Z,4.57
2023-01-19T09:25:39.896Z,5.57
2023-01-19T09:28:09.019Z,4.38
2023-01-19T09:30:37.388Z,4.55
2023-01-19T09:33:08.243Z,4.28
2023-01-19T09:35:34.936Z,5.20
2023-01-19T09:38:01.733Z,5.03
2023-01-19T09:40:29.066Z,5.07
2023-01-19T09:43:11.835Z,4.28
2023-01-19T09:45:51.783Z,4.10
2023-01-19T09:48:26.249Z,5.22
2023-01-19T09:50:55.822Z,4.85
2023-01-19T09:53:42.409Z,6.03
2023-01-19T09:56:15.125Z,3.97
2023-01-19T09:58:42.200Z,4.38
2023-01-19T10:01:34.849Z,3.97
2023-01-19T10:04:24.633Z,3.78
2023-01-19T10:06:54.673Z,3.40
2023-01-19T10:09:49.230Z,3.20
2023-01-19T10:12:32.519Z,3.72
2023-01-19T10:15:41.706Z,3.95
2023-01-19T10:18:33.103Z,3.63
2023-01-19T10:21:08.644Z,3.38
2023-01-19T10:23:43.702Z,3.00
2023-01-19T10:26:33.228Z,3.80
2023-01-19T10:29:17.506Z,2.83
2023-01-19T10:31:46.034Z,3.95
2023-01-19T10:34:20.957Z,3.20
2023-01-19T10:36:53.252Z,4.07
2023-01-19T10:39:20.068Z,3.65
2023-01-19T10:41:50.775Z,3.35
2023-01-19T10:44:25.765Z,3.28
2023-01-19T10:46:55.352Z,3.13
2023-01-19T10:49:29.920Z,3.40
2023-01-19T10:51:58.850Z,3.08
2023-01-19T10:54:27.627Z,4.03
2023-01-19T10:57:01.267Z,3.72
2023-01-19T10:59:48.657Z,2.95
2023-01-19T11:02:28.567Z,3.20
2023-01-19T11:05:00.945Z,2.60
2023-01-19T11:07:33.420Z,3.38
2023-01-19T11:10:21.924Z,3.22
2023-01-19T11:15:44.520Z,2.88
2023-01-19T11:18:25.447Z,3.53
2023-01-19T11:20:55.227Z,3.20
2023-01-19T11:23:24.848Z,2.92
2023-01-19T11:25:52.823Z,3.22
2023-01-19T11:28:21.807Z,2.40
2023-01-19T11:31:02.028Z,3.25
2023-01-19T11:33:37.624Z,2.65
2023-01-19T11:36:15.266Z,3.03
2023-01-19T11:38:43.814Z,2.90
2023-01-19T11:41:18.731Z,3.15
2023-01-19T11:43:49.346Z,3.35
2023-01-19T11:46:17.527Z,2.67
2023-01-19T11:48:57.894Z,2.80
2023-01-19T11:51:27.804Z,2.83
2023-01-19T11:53:54.297Z,2.25
2023-01-19T11:56:25.861Z,3.17
2023-01-19T11:58:52.408Z,2.53
2023-01-19T12:01:33.077Z,2.92
2023-01-19T12:04:17.132Z,2.35
2023-01-19T12:06:48.395Z,2.63
2023-01-19T12:09:32.818Z,2.15
2023-01-19T12:12:04.495Z,2.13
2023-01-19T12:14:53.781Z,3.03
2023-01-19T12:17:45.181Z,9.95
2023-01-19T12:20:52.848Z,4.05
2023-01-19T12:23:54.180Z,2.65
2023-01-19T12:26:42.447Z,2.40
2023-01-19T12:29:21.834Z,2.03
2023-01-19T12:32:13.396Z,2.53
2023-01-19T12:34:40.921Z,2.60
2023-01-19T12:37:27.468Z,2.35
2023-01-19T12:39:55.934Z,2.03
2023-01-19T12:42:22.902Z,2.25
2023-01-19T12:44:53.592Z,1.90
2023-01-19T12:47:22.725Z,2.10
2023-01-19T12:49:56.399Z,1.80
2023-01-19T12:52:33.968Z,1.65
2023-01-19T12:55:36.490Z,1.90
2023-01-19T12:58:23.369Z,1.92
2023-01-19T13:01:10.637Z,3.20
2023-01-19T13:03:59.636Z,2.42
2023-01-19T13:06:48.100Z,1.77
2023-01-19T13:09:33.915Z,1.80
2023-01-19T13:12:15.552Z,1.88
2023-01-19T13:14:43.594Z,1.60
2023-01-19T13:17:22.906Z,2.10
2023-01-19T13:19:54.710Z,2.58
2023-01-19T13:23:11.656Z,2.10
2023-01-19T13:25:38.179Z,1.98
2023-01-19T13:28:09.283Z,1.77
2023-01-19T13:30:39.687Z,1.77
2023-01-19T13:33:23.322Z,2.10
2023-01-19T13:35:58.443Z,2.10
2023-01-19T13:38:27.280Z,2.10
2023-01-19T13:40:55.676Z,1.60
2023-01-19T13:43:29.033Z,1.85
2023-01-19T13:45:56.109Z,1.90
2023-01-19T13:48:24.628Z,2.17
2023-01-19T13:51:05.812Z,2.35
2023-01-19T13:53:33.035Z,3.10
2023-01-19T13:56:16.498Z,2.65
2023-01-19T13:58:43.005Z,2.00
2023-01-19T14:01:23.066Z,1.63
2023-01-19T14:03:52.284Z,1.60
2023-01-19T14:06:39.639Z,2.17
2023-01-19T14:09:19.983Z,1.80
2023-01-19T14:12:04.663Z,1.50
2023-01-19T14:14:31.408Z,1.58
2023-01-19T14:16:57.849Z,3.13
2023-01-19T14:19:24.422Z,1.38
2023-01-19T14:22:01.931Z,1.45
2023-01-19T14:24:32.087Z,1.20
2023-01-19T14:27:24.025Z,1.13
2023-01-19T14:29:53.666Z,1.33
2023-01-19T14:32:24.714Z,1.10
2023-01-19T14:35:12.461Z,1.70
2023-01-19T14:37:49.490Z,1.85
2023-01-19T14:40:21.470Z,1.52
2023-01-19T14:42:54.589Z,1.83
2023-01-19T14:45:26.089Z,0.93
2023-01-19T14:48:01.135Z,1.50
2023-01-19T14:50:32.830Z,1.17
2023-01-19T14:53:15.032Z,1.17
2023-01-19T14:55:49.306Z,0.77
2023-01-19T14:58:18.604Z,1.00
2023-01-19T15:00:46.589Z,1.08
2023-01-19T15:03:13.331Z,0.90
2023-01-19T15:05:42.134Z,0.98
2023-01-19T15:08:14.650Z,1.20
2023-01-19T15:10:41.462Z,0.70
2023-01-19T15:13:17.449Z,0.90
2023-01-19T15:15:43.839Z,0.77
2023-01-19T15:18:15.595Z,1.15
2023-01-19T15:20:41.945Z,1.20
2023-01-19T15:23:10.780Z,0.80
2023-01-19T15:25:39.402Z,1.25
2023-01-19T15:28:12.092Z,1.30
2023-01-19T15:30:39.277Z,1.67
2023-01-19T15:33:05.789Z,0.95
2023-01-19T15:35:32.151Z,0.52
2023-01-19T15:37:58.573Z,1.10
2023-01-19T15:40:25.020Z,2.33
2023-01-19T15:42:51.461Z,1.10
2023-01-19T15:45:38.419Z,1.80
2023-01-19T15:48:10.545Z,1.83
2023-01-19T15:50:40.819Z,1.70
2023-01-19T15:53:07.813Z,1.70
2023-01-19T15:55:34.230Z,1.83
2023-01-19T15:58:03.462Z,1.50
2023-01-19T16:00:31.627Z,1.00
2023-01-19T16:02:58.912Z,1.42
2023-01-19T16:05:37.438Z,1.23
2023-01-19T16:08:08.582Z,1.38
2023-01-19T16:10:35.783Z,1.20
2023-01-19T16:13:03.979Z,2.05
2023-01-19T16:15:30.493Z,2.58
2023-01-19T16:17:56.857Z,2.75
2023-01-19T16:20:23.226Z,3.40
2023-01-19T16:22:49.593Z,3.47
2023-01-19T16:25:15.980Z,3.30
2023-01-19T16:27:42.591Z,2.60
2023-01-19T16:30:11.854Z,3.15
2023-01-19T16:32:38.729Z,3.58
2023-01-19T16:35:05.609Z,2.03
2023-01-19T16:37:32.057Z,2.72
2023-01-19T16:39:58.652Z,3.28
2023-01-19T16:42:25.270Z,4.40
2023-01-19T16:44:51.741Z,3.13
2023-01-19T16:47:18.213Z,2.42
2023-01-19T16:49:44.691Z,2.85
2023-01-19T16:52:11.435Z,4.97
2023-01-19T16:54:41.220Z,2.45
2023-01-19T16:57:07.636Z,3.65
2023-01-19T16:59:34.037Z,4.32
2023-01-19T17:02:00.644Z,4.20
2023-01-19T17:04:27.316Z,3.80
2023-01-19T17:06:54.768Z,3.78
2023-01-19T17:09:21.365Z,3.13
2023-01-19T17:11:48.010Z,3.15
2023-01-19T17:14:17.347Z,3.40
2023-01-19T17:16:44.172Z,3.72
2023-01-19T17:19:15.003Z,4.80
2023-01-19T17:21:43.351Z,2.95
2023-01-19T17:24:10.646Z,4.65
2023-01-19T17:26:37.120Z,4.22
2023-01-19T17:29:08.431Z,4.40
2023-01-19T17:34:02.028Z,3.58
2023-01-19T17:36:30.163Z,4.32
2023-01-19T17:38:58.972Z,5.05
2023-01-19T17:41:40.714Z,3.83
2023-01-19T17:44:07.442Z,4.60
2023-01-19T17:46:38.098Z,4.00
2023-01-19T17:49:06.695Z,3.45
2023-01-19T17:51:33.145Z,5.75
2023-01-19T17:53:59.599Z,5.50
2023-01-19T17:56:29.623Z,4.53
2023-01-19T17:58:57.566Z,6.05
2023-01-19T18:01:29.491Z,5.80
2023-01-19T18:03:56.916Z,7.82
2023-01-19T18:06:23.409Z,7.13
2023-01-19T18:08:50.362Z,5.60
2023-01-19T18:11:19.274Z,6.35
2023-01-19T18:13:48.033Z,4.70
2023-01-19T18:16:17.235Z,4.80
2023-01-19T18:18:44.269Z,4.72
2023-01-19T18:21:13.134Z,4.70
2023-01-19T18:23:40.313Z,5.95
2023-01-19T18:26:09.404Z,4.38
2023-01-19T18:28:36.199Z,4.07
2023-01-19T18:31:06.989Z,4.85
2023-01-19T18:33:34.062Z,5.10
2023-01-19T18:36:00.542Z,4.35
2023-01-19T18:38:27.259Z,4.68
2023-01-19T18:41:21.402Z,4.25
2023-01-19T18:43:48.445Z,3.92
2023-01-19T18:46:15.488Z,3.50
2023-01-19T18:48:41.921Z,3.80
2023-01-19T18:51:10.447Z,4.47
2023-01-19T18:53:37.610Z,5.35
2023-01-19T18:56:04.662Z,5.22
2023-01-19T18:58:32.705Z,6.13
2023-01-19T19:01:00.789Z,5.32
2023-01-19T19:03:28.306Z,6.57
2023-01-19T19:05:54.969Z,4.75
2023-01-19T19:08:21.375Z,6.90
2023-01-19T19:10:47.973Z,6.40
2023-01-19T19:13:16.070Z,5.65
2023-01-19T19:15:44.255Z,5.10
2023-01-19T19:18:13.563Z,5.18
2023-01-19T19:20:40.210Z,4.40
2023-01-19T19:23:06.773Z,4.13
2023-01-19T19:25:33.453Z,4.57
2023-01-19T19:27:59.917Z,7.57
2023-01-19T19:30:26.609Z,7.53
2023-01-19T19:32:54.446Z,8.65
2023-01-19T19:35:21.171Z,5.70
2023-01-19T19:37:48.854Z,6.35
2023-01-19T19:40:15.989Z,6.07
2023-01-19T19:42:42.362Z,5.82
2023-01-19T19:45:09.351Z,4.95
2023-01-19T19:47:35.708Z,5.55
2023-01-19T19:50:02.099Z,5.38
2023-01-19T19:52:28.519Z,4.72
2023-01-19T19:54:54.953Z,4.88
2023-01-19T19:57:21.320Z,4.72
2023-01-19T19:59:47.733Z,4.45
2023-01-19T20:02:14.152Z,5.60
2023-01-19T20:04:40.523Z,6.10
2023-01-19T20:07:06.870Z,6.85
2023-01-19T20:09:33.253Z,5.63
2023-01-19T20:11:59.694Z,6.22
2023-01-19T20:14:26.063Z,7.28
2023-01-19T20:16:53.001Z,8.15
2023-01-19T20:19:19.589Z,7.72
2023-01-19T20:21:45.996Z,6.28
2023-01-19T20:24:18.885Z,5.93
2023-01-19T20:26:51.728Z,4.38
2023-01-19T20:29:20.054Z,4.88
2023-01-19T20:31:53.771Z,7.10
2023-01-19T20:34:24.122Z,6.15
2023-01-19T20:36:53.118Z,5.63
2023-01-19T20:39:21.555Z,4.85
2023-01-19T20:41:50.176Z,5.60
2023-01-19T20:44:20.261Z,4.60
2023-01-19T20:46:47.359Z,6.28
2023-01-19T20:49:14.071Z,5.60
2023-01-19T20:51:45.105Z,4.80
2023-01-19T20:54:13.406Z,5.60
2023-01-19T20:56:41.526Z,6.47
2023-01-19T20:59:09.347Z,5.68
2023-01-19T21:01:36.285Z,5.35
2023-01-19T21:04:02.698Z,5.03
2023-01-19T21:06:29.067Z,5.45
2023-01-19T21:08:55.704Z,5.07
2023-01-19T21:11:23.932Z,5.32
2023-01-19T21:13:56.445Z,4.68
2023-01-19T21:16:28.392Z,5.95
2023-01-19T21:18:55.085Z,5.75
2023-01-19T21:21:30.480Z,6.55
2023-01-19T21:23:59.049Z,6.85
2023-01-19T21:26:25.689Z,6.20
2023-01-19T21:28:52.191Z,5.15
2023-01-19T21:31:18.749Z,4.72
2023-01-19T21:33:45.366Z,5.53
2023-01-19T21:36:11.925Z,5.35
2023-01-19T21:38:39.068Z,5.28
2023-01-19T21:41:11.898Z,6.28
2023-01-19T21:43:41.587Z,5.90
2023-01-19T21:46:20.100Z,5.95
2023-01-19T21:48:47.352Z,6.60
2023-01-19T21:51:14.748Z,5.63
2023-01-19T21:53:41.446Z,4.78
2023-01-19T21:56:09.454Z,5.40
2023-01-19T21:58:36.198Z,5.03
2023-01-19T22:01:05.063Z,5.63
2023-01-19T22:03:31.696Z,5.72
2023-01-19T22:06:07.168Z,5.15
2023-01-19T22:08:34.104Z,5.57
2023-01-19T22:11:05.471Z,5.32
2023-01-19T22:16:00.762Z,4.68
2023-01-19T22:18:27.133Z,5.18
2023-01-19T22:20:53.741Z,5.13
2023-01-19T22:23:20.295Z,5.40
2023-01-19T22:25:46.800Z,5.32
2023-01-19T22:28:13.206Z,4.32
2023-01-19T22:30:39.672Z,5.20
2023-01-19T22:33:06.711Z,4.55
2023-01-19T22:35:33.070Z,4.50
2023-01-19T22:37:59.437Z,4.85
2023-01-19T22:40:25.770Z,4.70
2023-01-19T22:42:52.139Z,4.45
2023-01-19T22:45:18.474Z,4.68
2023-01-19T22:47:46.182Z,4.45
2023-01-19T22:50:12.536Z,5.70
2023-01-19T22:52:38.928Z,5.40
2023-01-19T22:55:05.740Z,5.22
2023-01-19T22:57:36.532Z,5.45
2023-01-19T23:00:08.490Z,5.65
2023-01-19T23:02:34.923Z,6.00
2023-01-19T23:05:01.287Z,4.70
2023-01-19T23:07:27.621Z,5.72
2023-01-19T23:09:53.967Z,4.93
2023-01-19T23:12:20.378Z,5.70
2023-01-19T23:14:46.809Z,5.97
2023-01-19T23:17:13.256Z,5.57
2023-01-19T23:19:39.604Z,6.28
2023-01-19T23:22:06.013Z,5.72
2023-01-19T23:24:32.496Z,6.00
2023-01-19T23:26:58.972Z,7.82
2023-01-19T23:29:25.307Z,6.07
2023-01-19T23:31:53.344Z,4.95
2023-01-19T23:34:19.679Z,5.80
2023-01-19T23:36:46.119Z,6.22
2023-01-19T23:39:20.900Z,6.30
2023-01-19T23:41:48.670Z,6.10
2023-01-19T23:44:17.394Z,5.72
2023-01-19T23:46:44.229Z,5.80
2023-01-19T23:49:11.459Z,5.85
2023-01-19T23:51:39.444Z,6.13
2023-01-19T23:54:05.840Z,6.18
2023-01-19T23:56:36.019Z,5.80
2023-01-19T23:59:08.147Z,5.45
